Time;durP1;ratioP1;P1;durP2;ratioP2;P2;SDS_P1;SDS_P2;PMS_P1;PMS_P2;Temp;Humidity;BMP_temperature;BMP_pressure;BME280_temperature;BME280_humidity;BME280_pressure;Samples;Min_cycle;Max_cycle;Signal;HPM_P1;HPM_P2
2021/04/27 00:00:47;;;;;;;2.80;2.60;;;;;;;4.26;46.31;97583.72;5063069;28;20613;-71
2021/04/27 00:03:14;;;;;;;3.23;3.03;;;;;;;4.20;46.12;97590.38;5062135;28;20222;-72
2021/04/27 00:05:41;;;;;;;3.93;3.00;;;;;;;4.11;47.11;97591.13;5062856;28;20207;-71
2021/04/27 00:08:09;;;;;;;2.40;2.17;;;;;;;4.14;46.49;97590.88;5059771;28;20587;-70
2021/04/27 00:10:36;;;;;;;3.20;2.60;;;;;;;4.21;47.04;97578.06;5061717;28;20233;-70
2021/04/27 00:13:03;;;;;;;2.97;2.30;;;;;;;3.98;47.36;97578.28;5062981;28;20219;-71
2021/04/27 00:15:32;;;;;;;2.63;2.43;;;;;;;3.99;48.09;97573.84;5059841;28;20207;-72
2021/04/27 00:17:59;;;;;;;3.57;2.73;;;;;;;4.08;47.31;97572.22;5057231;28;20670;-70
2021/04/27 00:20:27;;;;;;;2.00;1.90;;;;;;;3.91;47.35;97570.09;5059967;28;20207;-72
2021/04/27 00:22:54;;;;;;;2.40;2.30;;;;;;;3.86;48.20;97572.28;5055936;28;20229;-72
2021/04/27 00:25:22;;;;;;;3.30;2.23;;;;;;;4.05;47.01;97555.81;5060732;28;20206;-71
2021/04/27 00:27:51;;;;;;;2.50;2.40;;;;;;;3.91;47.85;97571.88;5055312;28;20202;-70
2021/04/27 00:30:19;;;;;;;2.73;2.03;;;;;;;3.82;47.37;97559.56;5057216;28;20225;-72
2021/04/27 00:32:47;;;;;;;2.80;2.60;;;;;;;3.94;46.63;97563.75;5050412;28;20228;-71
2021/04/27 00:35:14;;;;;;;2.73;2.43;;;;;;;3.74;47.44;97554.97;5058096;28;21955;-72
2021/04/27 00:37:41;;;;;;;2.50;2.30;;;;;;;3.66;47.53;97554.81;5058465;28;20680;-69
2021/04/27 00:40:12;;;;;;;2.50;2.30;;;;;;;3.55;47.61;97553.94;5053158;28;20207;-72
2021/04/27 00:42:41;;;;;;;3.43;2.33;;;;;;;3.67;47.59;97551.22;5061302;28;20227;-71
2021/04/27 00:45:10;;;;;;;2.83;2.63;;;;;;;3.80;47.35;97549.25;5058565;28;20207;-71
2021/04/27 00:47:37;;;;;;;2.43;2.33;;;;;;;3.57;48.08;97549.41;5058920;28;20206;-71
2021/04/27 00:50:06;;;;;;;2.53;2.43;;;;;;;3.52;47.72;97545.50;5060050;28;20675;-71
2021/04/27 00:52:33;;;;;;;2.20;2.10;;;;;;;3.39;48.47;97532.59;5060432;28;20246;-70
2021/04/27 00:55:01;;;;;;;2.97;2.50;;;;;;;3.41;48.07;97541.16;5060450;28;20223;-73
2021/04/27 00:57:28;;;;;;;2.67;2.47;;;;;;;3.54;48.23;97535.72;5059070;28;20239;-71
2021/04/27 00:59:57;;;;;;;2.30;2.10;;;;;;;3.55;48.57;97540.00;5058184;28;20833;-72
2021/04/27 01:02:25;;;;;;;2.70;2.50;;;;;;;3.41;47.86;97535.94;5057779;28;20231;-72
2021/04/27 01:04:52;;;;;;;2.80;2.60;;;;;;;3.40;48.09;97532.50;5056082;28;20199;-70
2021/04/27 01:07:20;;;;;;;2.10;2.00;;;;;;;3.53;48.50;97529.66;5058423;28;20210;-70
2021/04/27 01:09:51;;;;;;;3.43;2.10;;;;;;;3.46;47.88;97524.09;5058411;28;20211;-72
2021/04/27 01:12:22;;;;;;;2.53;2.10;;;;;;;3.45;47.39;97521.63;5058134;28;20309;-72
2021/04/27 01:14:54;;;;;;;3.33;2.30;;;;;;;3.46;47.79;97516.25;5056810;28;20211;-71
2021/04/27 01:17:23;;;;;;;2.30;2.10;;;;;;;3.55;47.43;97512.03;5056066;28;20195;-71
2021/04/27 01:19:57;;;;;;;2.50;2.30;;;;;;;3.72;46.49;97507.94;5059587;28;20207;-71
2021/04/27 01:22:29;;;;;;;2.80;2.50;;;;;;;3.75;47.36;97501.59;5061868;28;20233;-69
2021/04/27 01:25:01;;;;;;;2.67;2.47;;;;;;;3.64;46.80;97512.19;5059560;28;20198;-70
2021/04/27 01:27:29;;;;;;;2.93;2.30;;;;;;;3.38;47.80;97504.75;5055422;28;20743;-71
2021/04/27 01:29:58;;;;;;;4.30;2.30;;;;;;;3.24;48.25;97498.09;5052378;28;20218;-69
2021/04/27 01:32:25;;;;;;;2.77;2.30;;;;;;;3.22;48.23;97505.22;5060549;28;20321;-72
2021/04/27 01:34:52;;;;;;;3.53;2.30;;;;;;;3.29;48.09;97504.59;5055865;28;20227;-70
2021/04/27 01:37:20;;;;;;;3.07;2.50;;;;;;;3.28;48.51;97504.72;5057208;28;20583;-70
2021/04/27 01:39:47;;;;;;;3.83;2.73;;;;;;;3.42;48.53;97499.13;5052211;28;20233;-71
2021/04/27 01:42:14;;;;;;;3.83;2.53;;;;;;;3.38;47.51;97505.59;5057627;28;20227;-71
2021/04/27 01:44:43;;;;;;;2.30;2.20;;;;;;;3.41;48.13;97497.47;5054893;28;20203;-72
2021/04/27 01:47:10;;;;;;;2.20;2.10;;;;;;;3.30;48.75;97503.63;5060474;28;20701;-71
2021/04/27 01:49:39;;;;;;;2.80;2.60;;;;;;;3.27;49.72;97498.66;5057654;28;20290;-72
2021/04/27 01:52:06;;;;;;;2.30;2.20;;;;;;;3.38;48.58;97492.50;5058138;28;20230;-72
2021/04/27 01:54:34;;;;;;;2.60;2.40;;;;;;;3.27;49.37;97488.16;5055474;28;20226;-72
2021/04/27 01:57:01;;;;;;;3.13;2.80;;;;;;;3.45;48.56;97491.00;5059588;28;20418;-71
2021/04/27 01:59:28;;;;;;;4.63;2.63;;;;;;;3.42;48.47;97486.03;5058077;28;20229;-72
2021/04/27 02:01:56;;;;;;;2.80;2.60;;;;;;;3.54;48.22;97492.03;5053850;28;20812;-70
2021/04/27 02:04:25;;;;;;;3.80;3.20;;;;;;;3.54;47.62;97478.09;5053231;28;20202;-73
2021/04/27 02:06:52;;;;;;;2.50;2.13;;;;;;;3.58;48.83;97477.69;5060057;28;20282;-71
2021/04/27 02:09:22;;;;;;;2.67;2.50;;;;;;;3.38;48.20;97482.03;5056452;28;20207;-72
2021/04/27 02:11:50;;;;;;;2.80;2.30;;;;;;;3.22;48.85;97482.50;5055298;28;20222;-71
2021/04/27 02:14:18;;;;;;;3.63;2.37;;;;;;;3.03;49.63;97483.22;5056992;28;20232;-71
2021/04/27 02:16:47;;;;;;;2.50;2.30;;;;;;;2.88;50.37;97482.72;5056228;28;20208;-71
2021/04/27 02:19:16;;;;;;;4.87;2.40;;;;;;;3.05;49.98;97483.91;5055514;28;20221;-69
2021/04/27 02:21:43;;;;;;;3.23;2.30;;;;;;;3.01;49.87;97483.34;5057283;28;20225;-71
2021/04/27 02:24:12;;;;;;;2.83;2.47;;;;;;;2.77;51.01;97480.97;5053371;28;20199;-71
2021/04/27 02:26:39;;;;;;;2.03;1.93;;;;;;;2.70;51.99;97485.06;5052973;28;20740;-72
2021/04/27 02:29:07;;;;;;;2.40;2.20;;;;;;;2.50;52.87;97484.09;5056198;28;20206;-70
2021/04/27 02:31:34;;;;;;;2.37;2.17;;;;;;;2.38;54.20;97480.69;5057708;28;20272;-71
2021/04/27 02:34:03;;;;;;;2.80;2.40;;;;;;;2.28;54.89;97480.63;5059965;28;20965;-73
2021/04/27 02:36:31;;;;;;;2.87;2.33;;;;;;;2.17;56.71;97477.06;5059838;28;20203;-71
2021/04/27 02:38:58;;;;;;;2.50;2.23;;;;;;;2.20;55.79;97478.63;5059423;28;20740;-70
2021/04/27 02:41:30;;;;;;;4.07;3.07;;;;;;;2.06;57.24;97468.44;5058810;28;20231;-68
2021/04/27 02:43:57;;;;;;;3.07;2.80;;;;;;;2.13;58.50;97474.84;5054696;28;20208;-69
2021/04/27 02:46:24;;;;;;;4.33;2.90;;;;;;;1.88;59.07;97469.78;5059653;28;20202;-71
2021/04/27 02:48:51;;;;;;;4.67;3.10;;;;;;;1.84;60.76;97472.78;5055840;28;20256;-70
2021/04/27 02:51:19;;;;;;;3.53;2.50;;;;;;;1.78;60.91;97468.84;5055603;28;20280;-71
2021/04/27 02:53:47;;;;;;;2.50;2.30;;;;;;;1.64;61.41;97472.53;5058792;28;20229;-71
2021/04/27 02:56:14;;;;;;;3.70;3.27;;;;;;;1.55;62.38;97466.28;5060118;28;20859;-71
2021/04/27 02:58:41;;;;;;;3.73;2.20;;;;;;;1.55;62.42;97468.06;5060109;28;20206;-70
2021/04/27 03:01:08;;;;;;;2.30;2.20;;;;;;;1.48;62.71;97461.66;5058042;28;20211;-70
2021/04/27 03:03:36;;;;;;;2.30;2.20;;;;;;;1.48;62.96;97456.44;5056744;28;20682;-70
2021/04/27 03:06:03;;;;;;;2.13;2.03;;;;;;;1.38;63.73;97458.91;5053368;28;20909;-70
2021/04/27 03:08:30;;;;;;;2.63;2.43;;;;;;;1.26;64.18;97458.09;5056337;28;20210;-70
2021/04/27 03:10:58;;;;;;;3.03;2.73;;;;;;;1.26;64.58;97453.72;5059106;28;20423;-70
2021/04/27 03:13:25;;;;;;;2.70;2.50;;;;;;;1.25;64.46;97464.25;5056347;28;20605;-70
2021/04/27 03:15:52;;;;;;;3.13;2.53;;;;;;;1.23;65.15;97458.31;5055312;28;20195;-70
2021/04/27 03:18:19;;;;;;;2.63;2.43;;;;;;;1.15;64.72;97451.91;5062705;28;20230;-69
2021/04/27 03:20:46;;;;;;;3.90;2.50;;;;;;;1.13;64.92;97450.34;5057095;28;20211;-69
2021/04/27 03:23:14;;;;;;;2.80;2.60;;;;;;;1.04;65.85;97454.53;5061127;28;20256;-71
2021/04/27 03:25:41;;;;;;;3.10;2.80;;;;;;;0.99;66.60;97451.44;5057577;28;20470;-68
2021/04/27 03:28:09;;;;;;;4.13;3.23;;;;;;;1.00;66.02;97453.91;5061980;28;20639;-69
2021/04/27 03:30:36;;;;;;;4.00;3.10;;;;;;;0.94;66.56;97459.59;5060352;28;20219;-69
2021/04/27 03:33:04;;;;;;;3.10;2.80;;;;;;;0.95;66.70;97450.84;5059701;28;20230;-70
2021/04/27 03:35:31;;;;;;;3.07;2.90;;;;;;;0.92;66.06;97451.06;5060718;28;20230;-70
2021/04/27 03:37:59;;;;;;;4.17;3.03;;;;;;;0.96;66.16;97449.88;5057583;28;20214;-72
2021/04/27 03:40:26;;;;;;;3.43;3.13;;;;;;;0.95;65.75;97440.41;5058879;28;20211;-70
2021/04/27 03:42:53;;;;;;;3.07;2.73;;;;;;;0.80;66.10;97437.16;5060989;28;20227;-70
2021/04/27 03:45:34;;;;;;;2.80;2.60;;;;;;;0.91;66.04;97436.38;5062462;28;20221;-70
2021/04/27 03:48:03;;;;;;;5.33;2.70;;;;;;;0.75;66.73;97433.25;5061931;28;20205;-73
2021/04/27 03:50:31;;;;;;;2.57;2.47;;;;;;;0.76;66.90;97435.75;5059967;28;20207;-72
2021/04/27 03:52:58;;;;;;;2.70;2.50;;;;;;;0.65;67.39;97435.72;5059051;28;20677;-70
2021/04/27 03:55:25;;;;;;;2.97;2.70;;;;;;;0.61;66.80;97436.91;5060534;28;20745;-69
2021/04/27 03:57:52;;;;;;;3.27;2.50;;;;;;;0.60;67.95;97430.84;5060498;28;20207;-68
2021/04/27 04:00:21;;;;;;;3.10;2.80;;;;;;;0.64;67.59;97434.06;5062406;28;20452;-72
2021/04/27 04:02:47;;;;;;;4.00;3.20;;;;;;;0.60;68.25;97430.03;5061066;28;20330;-71
2021/04/27 04:05:15;;;;;;;2.90;2.70;;;;;;;0.61;68.09;97432.50;5059052;28;20194;-70
2021/04/27 04:07:42;;;;;;;3.00;2.70;;;;;;;0.57;68.39;97436.28;5061179;28;20499;-69
2021/04/27 04:10:12;;;;;;;3.90;2.53;;;;;;;0.66;67.10;97442.59;5058152;28;20646;-64
2021/04/27 04:12:40;;;;;;;2.80;2.40;;;;;;;0.61;67.52;97434.31;5059686;28;20717;-67
2021/04/27 04:15:09;;;;;;;2.50;2.40;;;;;;;0.64;67.68;97434.06;5063293;28;20222;-66
2021/04/27 04:17:37;;;;;;;3.13;2.80;;;;;;;0.72;67.80;97439.53;5060422;28;20218;-66
2021/04/27 04:20:05;;;;;;;2.97;2.83;;;;;;;0.74;67.75;97428.97;5059408;28;20622;-66
2021/04/27 04:22:34;;;;;;;2.90;2.70;;;;;;;0.84;67.19;97436.00;5062494;28;20226;-66
2021/04/27 04:25:01;;;;;;;2.57;2.37;;;;;;;0.86;67.94;97430.66;5059236;28;20203;-66
2021/04/27 04:27:28;;;;;;;4.90;3.20;;;;;;;0.96;67.65;97430.81;5061749;28;20217;-67
2021/04/27 04:29:55;;;;;;;3.57;3.27;;;;;;;1.04;68.08;97432.81;5060932;28;20210;-67
2021/04/27 04:32:22;;;;;;;4.87;4.47;;;;;;;1.07;67.54;97433.41;5062971;28;20218;-66
2021/04/27 04:34:49;;;;;;;6.07;5.47;;;;;;;1.12;66.16;97430.44;5056311;28;20326;-67
2021/04/27 04:37:16;;;;;;;6.03;4.33;;;;;;;1.15;66.27;97431.03;5059657;28;20357;-66
2021/04/27 04:39:43;;;;;;;4.73;4.27;;;;;;;1.31;64.05;97424.63;5060116;28;20203;-65
2021/04/27 04:42:10;;;;;;;9.47;4.40;;;;;;;1.50;62.72;97433.63;5060181;28;20592;-66
2021/04/27 04:44:37;;;;;;;3.47;3.17;;;;;;;1.59;60.34;97436.34;5061649;28;20258;-66
2021/04/27 04:47:04;;;;;;;3.60;3.30;;;;;;;1.69;59.80;97428.59;5058074;28;20580;-66
2021/04/27 04:49:31;;;;;;;7.23;3.60;;;;;;;1.97;57.70;97425.59;5062242;28;20571;-66
2021/04/27 04:52:00;;;;;;;8.10;3.50;;;;;;;2.05;56.58;97433.63;5061448;28;20317;-65
2021/04/27 04:54:27;;;;;;;2.97;2.77;;;;;;;2.14;55.17;97435.50;5058330;28;20343;-67
2021/04/27 04:56:54;;;;;;;3.17;2.63;;;;;;;2.24;55.59;97432.13;5057504;28;20222;-68
2021/04/27 04:59:22;;;;;;;3.40;3.00;;;;;;;2.34;54.49;97432.22;5059876;28;20663;-70
2021/04/27 05:01:49;;;;;;;3.03;2.73;;;;;;;2.59;52.84;97425.78;5062638;28;20745;-68
2021/04/27 05:04:16;;;;;;;2.77;2.57;;;;;;;2.71;52.25;97430.00;5059009;28;20210;-70
2021/04/27 05:06:44;;;;;;;4.17;3.60;;;;;;;2.89;51.75;97427.63;5061034;28;20210;-71
2021/04/27 05:09:13;;;;;;;4.63;3.00;;;;;;;3.09;51.57;97426.91;5060093;28;20207;-70
2021/04/27 05:11:40;;;;;;;3.90;3.10;;;;;;;3.10;50.34;97432.00;5061295;28;20227;-70
2021/04/27 05:14:07;;;;;;;6.73;3.07;;;;;;;3.11;50.75;97432.84;5060360;28;20219;-71
2021/04/27 05:16:34;;;;;;;3.63;3.33;;;;;;;3.23;51.73;97429.16;5059554;28;20215;-68
2021/04/27 05:19:02;;;;;;;5.77;5.13;;;;;;;3.51;49.05;97425.94;5058528;28;20462;-68
2021/04/27 05:21:29;;;;;;;4.23;3.77;;;;;;;3.56;51.91;97423.75;5061604;28;20956;-69
2021/04/27 05:23:56;;;;;;;5.67;3.00;;;;;;;3.64;49.56;97423.09;5059641;28;20217;-70
2021/04/27 05:26:24;;;;;;;8.03;3.63;;;;;;;3.58;49.35;97420.06;5054255;28;20204;-70
2021/04/27 05:28:51;;;;;;;4.97;3.67;;;;;;;3.71;48.96;97419.81;5061276;28;20565;-72
2021/04/27 05:31:18;;;;;;;3.27;2.90;;;;;;;3.78;48.90;97419.25;5061958;28;20231;-70
2021/04/27 05:33:45;;;;;;;5.93;3.80;;;;;;;3.81;48.26;97411.13;5051313;28;20484;-68
2021/04/27 05:36:12;;;;;;;4.43;3.43;;;;;;;3.72;47.08;97426.72;5056568;28;20234;-69
2021/04/27 05:38:39;;;;;;;4.43;3.73;;;;;;;4.01;47.67;97418.06;5061670;28;20761;-68
2021/04/27 05:41:06;;;;;;;4.60;3.00;;;;;;;4.15;48.19;97416.00;5061580;28;20237;-68
2021/04/27 05:43:34;;;;;;;3.87;3.57;;;;;;;4.19;47.25;97412.13;5061530;28;20652;-69
2021/04/27 05:46:01;;;;;;;8.83;4.00;;;;;;;4.30;48.80;97419.84;5060132;28;21097;-70
2021/04/27 05:48:29;;;;;;;3.93;3.50;;;;;;;4.41;46.68;97418.88;5059383;28;20494;-68
2021/04/27 05:50:56;;;;;;;3.83;3.53;;;;;;;4.45;47.71;97422.06;5056675;28;20207;-70
2021/04/27 05:53:23;;;;;;;4.40;4.00;;;;;;;4.62;47.27;97410.84;5051495;28;20469;-70
2021/04/27 05:55:50;;;;;;;8.03;4.90;;;;;;;4.67;46.38;97414.84;5058553;28;20230;-68
2021/04/27 05:58:17;;;;;;;5.10;4.60;;;;;;;4.79;45.78;97403.25;5057104;28;20696;-68
2021/04/27 06:00:45;;;;;;;4.10;3.73;;;;;;;4.76;46.83;97414.84;5058997;28;20456;-69
2021/04/27 06:03:31;;;;;;;5.07;3.73;;;;;;;4.86;45.38;97416.59;5058594;28;20320;-71
2021/04/27 06:05:58;;;;;;;5.97;3.53;;;;;;;4.96;45.29;97412.19;5056164;28;20206;-70
2021/04/27 06:08:25;;;;;;;3.87;3.23;;;;;;;4.87;46.26;97413.84;5061070;28;20214;-70
2021/04/27 06:10:52;;;;;;;5.67;3.30;;;;;;;4.96;46.29;97412.19;5059016;28;20207;-69
2021/04/27 06:13:18;;;;;;;4.00;3.60;;;;;;;5.04;45.24;97414.06;5061391;28;20247;-70
2021/04/27 06:15:46;;;;;;;4.03;3.73;;;;;;;5.24;45.60;97409.56;5060566;28;20225;-70
2021/04/27 06:18:13;;;;;;;4.43;3.27;;;;;;;5.35;45.87;97408.56;5050514;28;20213;-69
2021/04/27 06:20:41;;;;;;;4.30;3.90;;;;;;;5.58;43.80;97406.38;5059360;28;20207;-70
2021/04/27 06:23:09;;;;;;;4.73;4.33;;;;;;;5.69;44.70;97405.34;5057035;28;20227;-70
2021/04/27 06:25:36;;;;;;;6.33;3.87;;;;;;;6.01;43.38;97406.69;5059251;28;21831;-69
2021/04/27 06:28:03;;;;;;;5.83;4.37;;;;;;;5.92;43.24;97404.94;5056665;28;20211;-70
2021/04/27 06:30:30;;;;;;;5.20;4.80;;;;;;;6.06;44.66;97404.44;5057579;28;20211;-69
2021/04/27 06:32:58;;;;;;;4.77;4.07;;;;;;;6.06;43.34;97404.44;5053527;28;20714;-69
2021/04/27 06:35:26;;;;;;;5.53;3.70;;;;;;;6.31;43.33;97396.78;5057242;28;20215;-71
2021/04/27 06:37:54;;;;;;;4.27;3.70;;;;;;;6.45;42.36;97402.47;5056834;28;20205;-70
2021/04/27 06:40:22;;;;;;;3.70;3.40;;;;;;;6.48;43.32;97394.28;5056333;28;20322;-69
2021/04/27 06:42:49;;;;;;;3.97;3.60;;;;;;;6.64;42.10;97391.78;5060550;28;20237;-70
2021/04/27 06:45:16;;;;;;;3.93;3.63;;;;;;;6.50;42.61;97390.53;5056483;28;20211;-70
2021/04/27 06:47:45;;;;;;;5.57;3.87;;;;;;;6.57;41.63;97389.91;5052182;28;20218;-70
2021/04/27 06:50:14;;;;;;;5.97;4.13;;;;;;;6.68;42.76;97381.75;5057799;28;20238;-70
2021/04/27 06:52:41;;;;;;;6.77;3.77;;;;;;;6.89;41.62;97389.28;5059564;28;20473;-68
2021/04/27 06:55:09;;;;;;;5.80;5.23;;;;;;;6.88;42.21;97379.72;5058242;28;20238;-70
2021/04/27 06:57:36;;;;;;;4.90;4.50;;;;;;;6.93;41.21;97382.72;5055317;28;20218;-70
2021/04/27 07:00:05;;;;;;;4.60;3.90;;;;;;;7.09;41.08;97368.00;5057680;28;20206;-69
2021/04/27 07:02:32;;;;;;;4.97;4.27;;;;;;;7.20;40.94;97373.00;5057232;28;20259;-70
2021/04/27 07:04:59;;;;;;;4.73;3.93;;;;;;;7.37;41.49;97371.25;5058825;28;20199;-69
2021/04/27 07:07:27;;;;;;;6.10;4.27;;;;;;;7.66;40.17;97372.66;5052962;28;20786;-70
2021/04/27 07:09:54;;;;;;;4.13;3.70;;;;;;;7.67;40.40;97365.56;5057375;28;20226;-70
2021/04/27 07:12:22;;;;;;;4.83;4.43;;;;;;;7.62;40.67;97373.13;5059196;28;20671;-71
2021/04/27 07:14:49;;;;;;;4.37;3.97;;;;;;;7.76;39.75;97371.69;5055490;28;20227;-70
2021/04/27 07:17:16;;;;;;;4.83;4.53;;;;;;;7.85;39.68;97372.53;5058317;28;20257;-70
2021/04/27 07:19:43;;;;;;;6.17;4.47;;;;;;;7.79;39.96;97361.66;5059180;28;20305;-68
2021/04/27 07:22:11;;;;;;;4.40;4.00;;;;;;;7.98;39.15;97362.34;5061096;28;20270;-70
2021/04/27 07:24:39;;;;;;;4.70;4.17;;;;;;;8.03;39.25;97362.66;5052939;28;20249;-69
2021/04/27 07:27:06;;;;;;;4.30;3.90;;;;;;;8.24;39.02;97367.47;5057082;28;20211;-70
2021/04/27 07:29:33;;;;;;;4.57;4.17;;;;;;;8.36;38.39;97367.97;5058394;28;20210;-70
2021/04/27 07:32:05;;;;;;;6.37;4.17;;;;;;;8.30;38.46;97362.50;5059426;28;20273;-69
2021/04/27 07:34:33;;;;;;;9.03;4.20;;;;;;;8.43;39.08;97362.03;5054060;28;20283;-69
2021/04/27 07:37:00;;;;;;;5.00;4.30;;;;;;;8.75;37.75;97365.66;5056002;28;20492;-69
2021/04/27 07:39:27;;;;;;;4.47;4.17;;;;;;;8.75;37.73;97366.50;5054038;28;20206;-70
2021/04/27 07:41:55;;;;;;;4.87;4.43;;;;;;;8.64;37.89;97361.53;5060372;28;20453;-70
2021/04/27 07:44:22;;;;;;;6.30;4.20;;;;;;;8.85;38.34;97361.00;5057594;28;20206;-70
2021/04/27 07:46:49;;;;;;;4.50;4.10;;;;;;;9.00;38.07;97366.41;5055837;28;20645;-69
2021/04/27 07:49:17;;;;;;;5.10;4.47;;;;;;;9.19;39.15;97357.28;5054194;28;20232;-69
2021/04/27 07:51:44;;;;;;;5.10;4.40;;;;;;;9.53;36.92;97358.78;5056847;28;20223;-70
2021/04/27 07:54:11;;;;;;;7.77;5.00;;;;;;;9.40;37.73;97356.69;5056392;28;20218;-70
2021/04/27 07:56:38;;;;;;;4.73;4.33;;;;;;;9.71;36.67;97360.38;5059940;28;20211;-70
2021/04/27 07:59:06;;;;;;;6.97;5.23;;;;;;;9.84;36.71;97357.13;5055811;28;20210;-70
2021/04/27 08:01:35;;;;;;;6.30;4.30;;;;;;;9.74;36.87;97357.38;5056708;28;20332;-70
2021/04/27 08:04:03;;;;;;;5.33;4.83;;;;;;;9.99;36.45;97351.91;5062498;28;20238;-69
2021/04/27 08:06:31;;;;;;;7.30;4.53;;;;;;;10.05;36.05;97355.69;5063199;28;20526;-70
2021/04/27 08:08:59;;;;;;;5.10;4.60;;;;;;;10.10;36.57;97356.81;5063992;28;20252;-71
2021/04/27 08:11:29;;;;;;;6.07;4.87;;;;;;;10.28;36.16;97360.97;5059260;28;20337;-69
2021/04/27 08:13:56;;;;;;;6.63;4.77;;;;;;;10.18;36.22;97360.38;5058619;28;20202;-70
2021/04/27 08:16:24;;;;;;;8.07;4.50;;;;;;;10.17;36.11;97351.59;5060402;28;20240;-71
2021/04/27 08:18:52;;;;;;;6.37;5.17;;;;;;;10.40;35.80;97361.41;5060131;28;20424;-70
2021/04/27 08:21:23;;;;;;;5.63;4.97;;;;;;;10.36;36.01;97360.91;5057817;28;20710;-69
2021/04/27 08:23:51;;;;;;;5.20;4.70;;;;;;;10.59;35.23;97359.25;5060989;28;20223;-69
2021/04/27 08:26:19;;;;;;;5.80;5.00;;;;;;;10.64;35.63;97352.41;5062679;28;20230;-71
2021/04/27 08:28:46;;;;;;;5.00;4.47;;;;;;;10.83;35.36;97351.06;5057187;28;20198;-70
2021/04/27 08:31:13;;;;;;;6.70;4.73;;;;;;;10.85;35.15;97348.25;5055896;28;20215;-71
2021/04/27 08:33:41;;;;;;;5.50;4.60;;;;;;;11.05;35.15;97345.88;5059501;28;20709;-70
2021/04/27 08:36:09;;;;;;;5.53;5.03;;;;;;;11.08;35.06;97350.81;5062893;28;20614;-68
2021/04/27 08:38:37;;;;;;;6.40;4.83;;;;;;;11.10;34.34;97342.66;5062922;28;20211;-70
2021/04/27 08:41:04;;;;;;;8.20;5.37;;;;;;;11.00;33.82;97346.41;5055670;28;20454;-71
2021/04/27 08:43:31;;;;;;;5.27;4.70;;;;;;;11.31;35.02;97344.56;5062334;28;20214;-68
2021/04/27 08:45:59;;;;;;;5.73;4.93;;;;;;;11.70;33.56;97345.25;5060383;28;20233;-71
2021/04/27 08:48:26;;;;;;;5.67;5.13;;;;;;;11.53;34.29;97334.81;5059385;28;20294;-71
2021/04/27 08:50:54;;;;;;;5.17;4.80;;;;;;;11.40;34.75;97339.97;5057013;28;20309;-70
2021/04/27 08:53:22;;;;;;;7.10;5.23;;;;;;;11.43;33.79;97339.63;5059833;28;20210;-71
2021/04/27 08:55:49;;;;;;;5.90;5.30;;;;;;;11.28;34.15;97337.81;5058917;28;20223;-71
2021/04/27 08:58:17;;;;;;;5.73;5.20;;;;;;;11.62;33.76;97330.25;5062058;28;20214;-71
2021/04/27 09:00:45;;;;;;;5.80;5.30;;;;;;;11.62;33.96;97330.25;5057412;28;20728;-71
2021/04/27 09:03:13;;;;;;;5.27;4.53;;;;;;;11.56;34.28;97337.13;5061097;28;20235;-70
2021/04/27 09:05:42;;;;;;;5.33;4.93;;;;;;;11.57;34.78;97340.59;5059035;28;20291;-70
2021/04/27 09:08:36;;;;;;;5.20;4.80;;;;;;;12.01;33.13;97341.50;5062014;28;20644;-70
2021/04/27 09:11:24;;;;;;;5.50;5.00;;;;;;;11.76;34.24;97333.06;5057722;28;20655;-70
2021/04/27 09:14:06;;;;;;;6.03;5.43;;;;;;;11.95;33.91;97326.31;5059382;28;20203;-68
2021/04/27 09:16:34;;;;;;;6.33;4.87;;;;;;;12.03;33.39;97323.56;5053559;28;20750;-70
2021/04/27 09:19:01;;;;;;;6.90;4.97;;;;;;;12.09;33.28;97317.47;5060140;28;20260;-70
2021/04/27 09:21:33;;;;;;;6.40;4.87;;;;;;;12.09;33.16;97308.69;5059858;28;20466;-70
2021/04/27 09:24:12;;;;;;;6.27;5.67;;;;;;;12.02;33.99;97311.28;5054465;28;20199;-70
2021/04/27 09:26:40;;;;;;;5.33;4.93;;;;;;;12.29;33.36;97308.84;5058948;28;20211;-69
2021/04/27 09:29:07;;;;;;;5.90;5.07;;;;;;;12.34;33.42;97309.13;5058583;28;20219;-70
2021/04/27 09:31:36;;;;;;;6.13;5.00;;;;;;;12.42;32.89;97298.34;5055991;28;20254;-70
2021/04/27 09:34:21;;;;;;;8.37;5.43;;;;;;;12.42;32.84;97300.16;5061193;28;20249;-70
2021/04/27 09:36:49;;;;;;;5.87;5.33;;;;;;;12.44;32.43;97296.31;5058077;28;20459;-70
2021/04/27 09:39:19;;;;;;;7.70;5.83;;;;;;;12.53;32.41;97298.81;5059563;28;20465;-71
2021/04/27 09:41:57;;;;;;;7.17;5.87;;;;;;;12.45;32.52;97297.13;5059530;28;20363;-70
2021/04/27 09:44:29;;;;;;;5.90;5.30;;;;;;;12.64;33.87;97292.16;5055588;28;20203;-70
2021/04/27 09:47:12;;;;;;;5.90;5.40;;;;;;;12.69;33.74;97300.38;5051600;28;20200;-70
2021/04/27 09:49:59;;;;;;;6.27;5.53;;;;;;;12.84;32.58;97290.44;5058757;28;20204;-70
2021/04/27 09:52:29;;;;;;;5.73;5.33;;;;;;;12.77;33.14;97288.75;5058387;28;20325;-70
2021/04/27 09:55:06;;;;;;;7.83;4.83;;;;;;;12.88;33.04;97285.53;5053561;28;20227;-70
2021/04/27 09:57:35;;;;;;;5.83;5.20;;;;;;;12.84;32.98;97287.75;5058216;28;20215;-70
2021/04/27 10:00:20;;;;;;;5.70;5.00;;;;;;;12.90;33.08;97288.03;5056043;28;20208;-68
2021/04/27 10:02:47;;;;;;;6.80;5.70;;;;;;;12.90;33.20;97285.38;5057463;28;20226;-70
2021/04/27 10:05:14;;;;;;;10.57;6.17;;;;;;;13.22;32.28;97280.38;5056557;28;20667;-69
2021/04/27 10:07:41;;;;;;;6.10;5.60;;;;;;;13.01;32.23;97279.47;5059559;28;20229;-70
2021/04/27 10:10:12;;;;;;;6.80;5.90;;;;;;;13.32;33.08;97279.00;5060647;28;20599;-70
2021/04/27 10:12:39;;;;;;;9.43;5.73;;;;;;;13.15;31.97;97283.84;5059294;28;20304;-69
2021/04/27 10:15:08;;;;;;;8.40;5.17;;;;;;;13.01;32.71;97276.81;5059473;28;20234;-69
2021/04/27 10:17:35;;;;;;;7.80;5.33;;;;;;;13.24;31.65;97267.69;5057642;28;20207;-72
2021/04/27 10:20:05;;;;;;;6.63;5.37;;;;;;;13.32;32.36;97267.53;5061428;28;20211;-67
2021/04/27 10:22:32;;;;;;;6.43;5.60;;;;;;;13.15;31.35;97265.22;5057825;28;20572;-68
2021/04/27 10:24:59;;;;;;;6.30;5.70;;;;;;;13.05;33.06;97256.78;5060833;28;20671;-69
2021/04/27 10:27:28;;;;;;;6.23;5.63;;;;;;;13.39;33.64;97262.22;5058023;28;20214;-69
2021/04/27 10:29:57;;;;;;;9.30;5.60;;;;;;;13.66;31.59;97263.16;5057459;28;20206;-68
2021/04/27 10:32:25;;;;;;;9.90;5.60;;;;;;;13.94;31.99;97262.16;5060624;28;20226;-69
2021/04/27 10:35:10;;;;;;;6.30;5.80;;;;;;;14.15;30.53;97253.16;5061591;28;20214;-70
2021/04/27 10:38:00;;;;;;;6.37;5.50;;;;;;;14.44;30.92;97256.41;5056361;28;20207;-69
2021/04/27 10:40:51;;;;;;;5.80;5.33;;;;;;;14.96;28.42;97241.56;5060552;28;20251;-68
2021/04/27 10:43:53;;;;;;;6.03;5.37;;;;;;;15.25;28.89;97239.41;5058493;28;20222;-69
2021/04/27 10:46:55;;;;;;;5.37;4.97;;;;;;;16.29;26.56;97233.81;5057757;28;20495;-70
2021/04/27 10:49:42;;;;;;;8.67;5.40;;;;;;;15.58;27.03;97235.75;5055816;28;20290;-69
2021/04/27 10:52:26;;;;;;;5.30;4.90;;;;;;;15.48;27.20;97231.66;5057706;28;20223;-67
2021/04/27 10:54:54;;;;;;;5.00;4.50;;;;;;;15.83;26.83;97225.09;5057657;28;20199;-69
2021/04/27 10:57:44;;;;;;;5.67;5.10;;;;;;;15.45;27.51;97224.09;5056236;28;20202;-69
2021/04/27 11:00:32;;;;;;;5.83;4.73;;;;;;;15.73;27.12;97217.56;5057343;28;20206;-69
2021/04/27 11:03:16;;;;;;;5.10;4.70;;;;;;;15.68;26.58;97219.22;5057845;28;20223;-70
2021/04/27 11:06:07;;;;;;;6.13;5.20;;;;;;;16.02;25.59;97217.16;5059268;28;20349;-70
2021/04/27 11:08:45;;;;;;;5.50;5.10;;;;;;;16.23;26.15;97220.50;5059071;28;20229;-70
2021/04/27 11:11:25;;;;;;;5.47;5.00;;;;;;;16.74;26.76;97215.88;5061023;28;20307;-71
2021/04/27 11:13:54;;;;;;;7.17;5.60;;;;;;;16.80;26.26;97214.97;5056528;28;20230;-70
2021/04/27 11:16:27;;;;;;;6.43;4.97;;;;;;;16.91;25.55;97213.41;5059722;28;20241;-71
2021/04/27 11:19:17;;;;;;;7.03;5.30;;;;;;;16.38;26.13;97215.59;5057518;28;20288;-69
2021/04/27 11:21:44;;;;;;;8.13;5.73;;;;;;;16.02;28.19;97203.78;5054721;28;20215;-68
2021/04/27 11:24:31;;;;;;;6.00;5.40;;;;;;;16.40;28.21;97205.50;5054625;28;20208;-71
2021/04/27 11:26:59;;;;;;;5.03;4.63;;;;;;;16.82;26.26;97204.03;5057010;28;20210;-70
2021/04/27 11:29:28;;;;;;;5.57;5.07;;;;;;;16.82;25.25;97199.53;5059101;28;20217;-69
2021/04/27 11:32:02;;;;;;;7.57;4.80;;;;;;;16.57;27.51;97196.94;5056995;28;20231;-70
2021/04/27 11:34:30;;;;;;;6.17;5.33;;;;;;;16.33;27.35;97194.06;5054589;28;20874;-70
2021/04/27 11:36:59;;;;;;;5.07;4.67;;;;;;;16.86;25.47;97197.22;5056344;28;20226;-69
2021/04/27 11:39:29;;;;;;;4.80;4.33;;;;;;;16.42;25.69;97192.72;5057199;28;20209;-70
2021/04/27 11:41:57;;;;;;;4.97;4.57;;;;;;;16.39;25.12;97190.50;5059117;28;20251;-69
2021/04/27 11:44:31;;;;;;;5.87;4.40;;;;;;;16.59;23.26;97187.63;5060747;28;20206;-69
2021/04/27 11:47:02;;;;;;;4.47;4.10;;;;;;;16.08;25.46;97186.09;5062056;28;20202;-70
2021/04/27 11:49:48;;;;;;;4.27;3.97;;;;;;;16.36;24.83;97182.94;5060283;28;20203;-71